39 minutes ago
Runway Headwind Crosswind Length
10/28 8,858 ft
METAR EDDN 202020Z VRB01KT 9999 FEW030CB 22/19 Q1005

METAR definition | Embed

METAR Nuremberg Airport

Nuremberg Airport is a large airport in Nuremberg, Germany. The airport has one runway: 10/28 (8,858 ft)

This report was made for Nuremberg Airport on June 20, 2021 10:20 pm, local time.

Airport observations

There is little or no wind from a variable direction.

Visibility is 6¼ mi or more.

There are few clouds , cumulonimbus at an altitude of 3,000 ft. No ceiling has been observed.

The temperature and wind chill are 72 °F. The dew point is 66 °F, the relative humidity is 83%. The air pressure at sea level is 29.68 inHg (QNH).

Daylight period

Today the sun rises at 5:08 am and sets at 9:25 pm. This applies to Nuremberg Airport, the universal daylight period may be different. The difference between the local time and UTC is +2 hour. Daylight saving time is currently in progress.

Historical data

Donate

Will you help us to keep Metar-Taf.com running?
Your contribution helps further development of the site and to pay for the expenses.

No more ads

Are you donating $ 5 or more? Then we'll never show you ads again, as a token of our eternal gratitude!
Log in before you donate

Do you want the flying weather of Nuremberg Airport on your website? Read more   Free!